Date,TemperatureHighF,TemperatureAvgF,TemperatureLowF,DewpointHighF,DewpointAvgF,DewpointLowF,HumidityHigh,HumidityAvg,HumidityLow,PressureMaxIn,PressureMinIn,WindSpeedMaxMPH,WindSpeedAvgMPH,GustSpeedMaxMPH,PrecipitationSumIn
2013-1-1,35.6,29.9,16.8,24.9,15.0,1.9,71,54,41,29.95,29.71,16,2,20,0.13
2013-1-2,27.3,18.1,8.2,16.7,5.7,-6.9,71,58,48,30.13,29.92,12,2,13,0.03
2013-1-3,23.3,13.1,3.7,8.2,-2.4,-8.2,69,50,30,30.16,30.01,11,1,13,0.01
2013-1-4,37.5,27.4,13.5,22.9,17.4,7.5,86,66,51,30.01,29.82,12,1,16,0.04
2013-1-5,40.2,32.6,22.3,23.6,18.8,14.5,78,58,37,30.28,29.85,14,1,14,0.02
2013-1-6,40.8,31.5,23.0,27.4,23.7,16.0,86,73,56,30.25,29.95,10,0,11,0.00
2013-1-7,36.7,30.0,22.3,26.9,20.3,12.4,88,68,42,30.42,29.97,12,1,13,0.01
2013-1-8,44.1,32.5,22.5,26.9,23.6,18.1,91,71,47,30.38,30.27,9,0,10,0.00
2013-1-9,43.6,34.4,24.0,33.4,26.4,21.2,91,74,49,30.42,30.00,12,0,15,0.01
2013-1-10,45.2,40.4,30.4,27.9,23.4,21.6,71,51,40,30.55,30.03,17,3,22,0.00
2013-1-11,39.1,33.2,25.3,34.5,26.4,21.0,94,77,61,30.55,30.24,4,0,5,0.00
2013-1-12,41.4,38.6,35.9,39.7,37.3,34.5,97,95,93,30.24,30.14,4,0,4,0.00
2013-1-13,49.9,44.5,39.5,47.7,43.4,38.5,97,96,91,30.16,29.99,5,0,5,0.00
2013-1-14,60.2,50.0,39.8,50.8,40.5,25.1,96,72,43,30.27,29.86,12,2,12,0.00
2013-1-15,40.8,36.8,31.4,25.8,23.7,21.6,71,59,48,30.33,30.24,6,1,9,0.00
2013-1-16,32.7,31.4,28.5,30.7,27.8,21.7,94,87,66,30.27,29.83,4,0,5,0.00
2013-1-17,40.7,32.7,26.4,32.1,24.8,8.2,95,74,43,30.12,29.84,10,1,14,0.00
2013-1-18,27.5,20.0,14.2,9.9,0.3,-4.9,56,42,29,30.46,30.07,13,2,14,0.00
2013-1-19,46.5,34.9,19.5,29.7,19.8,5.2,75,54,39,30.39,29.88,11,1,14,0.01
2013-1-20,52.5,39.6,27.2,31.0,23.4,9.0,75,53,29,29.93,29.53,16,3,23,0.00
2013-1-21,27.2,23.6,19.2,19.0,8.7,2.1,88,55,38,30.11,29.81,14,1,16,0.00
2013-1-22,23.9,19.1,11.7,18.7,7.6,-1.7,92,63,37,30.09,29.78,13,2,17,0.01
2013-1-23,13.9,9.5,4.2,0.4,-9.7,-14.8,60,41,28,30.16,30.08,14,2,19,0.00
2013-1-24,17.5,9.2,0.7,-8.0,-11.7,-13.7,57,39,26,30.24,30.08,21,3,21,0.00
2013-1-25,22.3,14.9,7.1,5.5,-8.7,-11.9,59,34,22,30.32,30.08,13,2,16,0.01
2013-1-26,22.2,16.2,10.7,9.3,-0.0,-10.3,80,52,26,30.25,30.03,13,2,18,0.01
2013-1-27,28.7,19.7,12.2,2.0,-0.7,-5.2,62,42,26,30.49,30.24,13,2,15,0.00
2013-1-28,30.0,23.1,16.9,22.7,10.5,0.1,91,61,32,30.47,30.04,5,0,6,0.00
2013-1-29,34.4,29.1,24.2,30.6,25.5,21.4,94,86,76,30.21,30.05,3,0,4,0.03
2013-1-30,59.6,45.5,31.9,56.2,43.7,30.4,97,94,87,30.17,29.45,10,1,15,0.05
2013-1-31,61.1,48.4,30.2,58.0,41.7,15.3,94,78,56,29.58,29.01,17,4,26,0.00
2013-2-1,32.3,27.2,21.5,18.3,8.3,2.2,66,45,32,30.09,29.58,14,3,17,0.00
2013-2-2,28.2,23.4,15.6,10.6,5.1,1.6,59,45,36,30.26,30.06,8,1,11,0.02
2013-2-3,25.8,23.6,18.5,21.2,18.6,10.7,92,81,54,30.07,29.74,6,0,6,0.01
2013-2-4,28.7,23.5,18.5,20.2,9.5,2.8,89,57,36,29.94,29.73,20,2,21,0.00
2013-2-5,28.8,23.8,19.3,20.7,10.0,4.2,85,56,42,30.05,29.94,6,0,6,0.00
2013-2-6,37.0,29.0,21.6,25.2,17.0,4.3,92,64,36,30.31,29.94,12,2,16,0.01
2013-2-7,27.0,22.1,14.5,5.6,-0.3,-5.1,51,37,27,30.55,30.31,10,1,10,0.00
2013-2-8,24.4,21.0,16.4,19.3,15.8,5.6,92,81,44,30.51,29.69,13,1,16,0.00
2013-2-9,20.8,17.5,14.2,17.3,11.4,1.0,92,78,55,30.22,29.63,19,5,24,0.00
2013-2-10,37.2,21.9,5.5,14.7,3.8,-1.7,80,49,22,30.41,30.22,11,1,14,0.01
2013-2-11,34.4,27.5,17.1,32.5,22.2,6.7,96,81,57,30.37,29.62,5,0,6,0.24
2013-2-12,37.5,35.1,32.4,31.0,29.1,25.8,94,79,67,29.88,29.64,8,2,11,0.01
2013-2-13,42.7,35.1,26.3,26.3,23.3,21.2,82,63,46,29.88,29.72,10,0,10,0.00
2013-2-14,42.3,34.7,27.4,24.3,21.7,19.3,78,60,41,30.00,29.71,8,1,10,0.00
2013-2-15,51.1,37.9,26.5,32.8,28.6,21.4,92,71,47,30.01,29.90,11,1,14,0.00
2013-2-16,38.4,33.9,29.0,30.3,25.4,15.3,93,72,51,29.97,29.74,10,1,11,0.00
2013-2-17,29.0,20.9,15.4,17.2,8.5,-0.2,87,60,41,29.74,29.40,21,6,27,0.00
2013-2-18,29.6,21.7,13.6,2.6,-0.3,-4.7,53,39,22,30.17,29.69,20,4,22,0.00
2013-2-19,46.0,34.6,20.6,39.5,21.1,1.6,95,60,35,30.18,29.59,7,1,9,0.08
2013-2-20,39.6,31.9,25.6,38.6,19.8,10.7,96,62,41,29.78,29.54,17,3,18,0.00
2013-2-21,31.7,26.3,23.2,14.9,12.1,8.0,67,55,43,30.21,29.78,17,3,20,0.00
2013-2-22,39.2,31.5,23.3,24.1,19.1,15.2,78,61,41,30.42,30.22,11,1,11,0.00
2013-2-23,37.9,33.4,27.8,31.2,27.8,22.4,94,80,69,30.35,29.94,12,1,12,0.00
2013-2-24,34.9,32.7,30.2,33.8,31.2,28.7,96,94,92,29.94,29.73,9,1,9,0.00
2013-2-25,40.4,33.7,29.6,32.1,29.8,27.6,94,86,68,30.25,29.92,3,0,4,0.03
2013-2-26,43.1,35.4,28.9,33.6,29.2,26.1,96,79,58,30.36,30.19,9,1,10,0.09
2013-2-27,40.7,37.8,35.4,38.6,35.2,28.7,95,91,75,30.19,29.59,22,3,22,0.00
2013-2-28,46.4,38.4,33.1,36.0,33.9,31.5,95,84,66,29.65,29.55,6,0,6,0.00
2013-3-1,39.9,36.9,29.9,34.3,29.4,26.8,95,75,61,29.70,29.55,9,1,10,0.00
2013-3-2,41.8,36.7,30.7,29.4,26.5,24.3,79,67,59,29.69,29.63,9,1,11,0.01
2013-3-3,39.5,34.6,30.3,31.1,27.1,24.1,84,74,67,29.66,29.57,11,1,14,0.01
2013-3-4,38.6,33.4,29.5,28.1,23.3,20.4,86,67,52,29.76,29.60,17,4,20,0.03
2013-3-5,44.9,35.9,30.1,32.8,26.3,21.3,89,69,51,30.09,29.76,14,2,16,0.00
2013-3-6,38.6,35.5,32.5,34.0,32.1,29.1,93,87,75,30.15,30.07,18,2,18,0.00
2013-3-7,33.3,31.5,29.9,30.5,28.5,25.6,93,88,80,30.12,30.02,11,2,11,0.00
2013-3-8,41.4,33.3,28.8,31.7,27.1,21.3,95,80,48,30.18,29.98,8,1,9,0.03
2013-3-9,48.4,36.6,27.7,28.9,23.3,18.7,93,61,34,30.37,30.18,9,1,10,0.02
2013-3-10,44.2,34.4,23.8,31.0,28.1,22.2,95,79,57,30.43,30.32,7,1,8,0.00
2013-3-11,53.4,42.1,33.0,39.2,33.7,30.0,92,74,45,30.34,30.16,7,1,9,0.00
2013-3-12,55.7,48.6,40.8,52.2,46.2,38.6,96,91,80,30.17,29.73,13,1,15,0.00
2013-3-13,52.1,43.5,34.8,51.0,30.1,18.8,96,62,32,29.79,29.71,11,2,15,0.00
2013-3-14,35.4,30.8,21.8,23.3,14.8,6.4,73,52,39,29.85,29.72,16,2,19,0.00
2013-3-15,39.9,28.9,18.6,27.9,11.5,3.0,82,50,24,29.89,29.64,13,2,15,0.00
2013-3-16,37.6,32.7,27.3,25.9,13.1,7.9,74,45,30,29.90,29.68,12,1,14,0.00
2013-3-17,36.1,29.1,21.3,15.9,8.5,1.3,74,44,24,30.34,29.90,14,2,19,0.01
2013-3-18,38.1,28.0,15.9,25.6,7.2,-1.2,89,43,21,30.48,30.26,9,1,11,0.01
2013-3-19,34.0,31.0,26.1,32.2,29.2,23.1,95,93,89,30.26,29.66,16,1,19,0.00
2013-3-20,36.7,30.0,24.6,23.4,21.3,18.7,91,71,50,29.83,29.72,13,2,17,0.00
2013-3-21,38.3,29.6,20.5,27.3,19.6,11.4,91,69,36,29.83,29.62,7,0,8,0.02
2013-3-22,40.2,32.9,26.3,25.1,19.3,14.0,93,59,36,29.75,29.62,13,2,13,0.03
2013-3-23,42.1,34.4,25.7,22.3,18.9,16.4,77,54,36,29.79,29.64,18,3,21,0.00
2013-3-24,46.2,38.3,31.6,27.9,22.7,19.8,76,54,39,29.83,29.74,13,2,17,0.03
2013-3-25,42.4,36.2,29.9,32.1,28.2,23.0,80,72,64,29.79,29.55,14,1,17,0.01
2013-3-26,49.6,41.0,34.7,27.9,22.9,17.5,72,50,28,29.80,29.57,11,1,12,0.01
2013-3-27,53.4,42.0,27.8,32.6,23.9,20.5,76,51,31,29.89,29.75,13,2,15,0.12
2013-3-28,48.2,42.0,35.7,35.0,32.3,28.2,90,70,47,30.03,29.89,8,1,10,0.07
2013-3-29,56.4,45.0,33.6,34.4,31.1,25.8,83,60,32,30.06,29.98,9,1,11,0.01
2013-3-30,55.4,45.7,34.9,32.6,23.1,11.7,83,46,18,30.11,30.01,10,1,13,0.03
2013-3-31,60.9,45.2,27.3,38.5,25.2,19.0,81,50,20,30.13,29.76,15,1,16,0.00
2013-4-1,61.2,46.4,34.3,42.2,34.3,9.6,95,66,31,29.79,29.50,19,3,23,0.15
2013-4-2,38.4,33.8,28.6,14.0,11.1,6.7,50,39,28,29.94,29.79,20,3,21,0.00
2013-4-3,45.6,36.4,28.6,15.4,10.6,3.1,52,36,19,30.17,29.92,17,4,20,0.00
2013-4-4,54.7,42.1,29.3,22.7,14.3,7.7,55,35,17,30.31,30.04,14,2,15,0.05
2013-4-5,59.9,45.6,36.5,28.3,24.5,17.7,69,46,20,30.04,29.64,13,2,18,0.05
2013-4-6,44.9,37.0,30.2,22.4,8.9,0.1,54,33,16,30.35,29.90,18,3,22,0.00
2013-4-7,56.7,42.1,25.9,38.2,24.6,10.2,77,52,26,30.35,30.00,17,2,23,0.04
2013-4-8,64.1,51.2,39.7,41.8,36.9,29.7,94,62,28,30.10,29.96,10,1,11,0.00
2013-4-9,69.6,55.2,45.0,49.9,42.4,38.3,90,65,36,30.09,29.86,13,2,15,0.03
2013-4-10,61.1,50.7,44.8,47.9,44.7,40.9,93,81,61,30.04,29.87,8,1,9,0.01
2013-4-11,52.2,46.2,41.4,46.2,37.4,23.9,95,74,39,30.16,29.85,8,1,10,0.02
2013-4-12,41.6,37.3,35.3,35.8,32.5,27.8,94,83,59,30.20,29.83,13,2,17,0.03
2013-4-13,52.7,42.4,34.5,38.4,35.2,32.2,94,77,52,29.95,29.78,11,1,12,0.03
2013-4-14,53.2,46.0,37.6,38.6,31.5,25.2,84,59,37,30.23,29.93,12,2,14,0.00
2013-4-15,58.0,44.5,30.2,37.3,31.6,26.8,91,63,32,30.41,30.23,13,1,14,0.01
2013-4-16,67.8,52.5,37.4,50.4,41.2,33.8,92,68,41,30.42,30.06,16,2,18,0.04
2013-4-17,65.0,57.7,48.1,52.3,34.8,25.5,84,46,24,30.34,30.06,13,2,15,0.02
2013-4-18,61.1,51.3,39.1,42.8,31.6,26.2,71,49,33,30.45,30.16,13,2,13,0.01
2013-4-19,76.3,63.4,52.0,62.2,55.9,43.3,95,78,53,30.16,29.64,15,2,16,0.01
2013-4-20,67.7,53.4,43.5,62.4,39.4,21.9,93,63,34,30.22,29.60,14,3,15,0.01
2013-4-21,52.6,42.6,33.6,29.7,20.9,13.0,78,44,21,30.70,30.22,12,2,14,0.00
2013-4-22,51.7,41.9,32.5,32.5,28.5,20.1,86,62,30,30.78,30.62,15,2,15,0.00
2013-4-23,41.0,39.0,35.3,39.3,35.7,28.8,95,88,74,30.62,30.16,9,1,11,0.00
2013-4-24,75.6,56.6,40.5,51.2,43.2,34.8,95,67,23,30.16,29.78,12,1,13,0.02
2013-4-25,63.7,55.4,45.4,51.6,34.4,23.3,91,50,24,30.28,29.82,15,2,16,0.10
2013-4-26,60.9,50.0,37.3,38.5,32.6,27.5,79,54,31,30.44,30.28,10,1,11,0.21
2013-4-27,66.3,52.1,37.6,38.3,34.9,30.7,94,56,27,30.43,30.30,10,1,10,0.03
2013-4-28,70.8,54.6,38.6,41.2,35.1,28.0,90,52,25,30.35,30.22,13,1,13,0.02
2013-4-29,70.7,57.7,46.1,46.8,36.5,26.5,81,48,26,30.28,30.18,10,1,14,0.00
2013-4-30,70.0,57.9,47.4,35.0,27.3,17.3,58,34,16,30.38,30.26,9,1,12,0.01
2013-5-1,71.1,55.8,38.5,38.2,32.7,26.2,85,46,23,30.48,30.37,9,1,10,0.00
2013-5-2,78.5,55.8,41.9,44.5,38.5,31.7,85,57,21,30.51,30.35,11,1,14,0.03
2013-5-3,60.2,50.7,41.2,43.5,39.8,36.5,88,67,50,30.54,30.39,15,1,20,0.00
2013-5-4,61.2,50.1,40.0,44.8,36.4,20.5,93,64,23,30.39,30.31,12,1,15,0.00
2013-5-5,62.6,48.7,35.9,40.4,37.5,34.1,94,69,40,30.35,30.26,8,1,10,0.01
2013-5-6,72.3,52.0,36.6,48.1,42.2,34.9,95,74,29,30.31,30.16,7,1,10,0.04
2013-5-7,77.8,63.2,45.5,57.6,50.6,43.9,95,67,35,30.18,30.08,10,1,11,0.00
2013-5-8,74.3,63.1,54.6,61.2,57.4,52.4,94,82,58,30.21,30.05,12,1,12,0.02
2013-5-9,68.3,59.4,56.5,61.1,57.4,54.9,97,93,76,30.06,29.89,4,0,6,0.38
2013-5-10,79.4,64.7,54.7,59.4,55.9,53.5,97,76,43,29.97,29.90,8,0,11,0.00
2013-5-11,70.2,64.0,58.6,61.6,58.4,53.9,95,83,69,29.91,29.69,11,1,12,0.18
2013-5-12,71.4,60.7,49.9,60.3,49.9,27.4,96,71,35,29.81,29.56,12,1,14,0.10
2013-5-13,58.2,49.0,39.6,33.2,29.5,25.3,74,48,30,30.04,29.81,14,1,14,0.00
2013-5-14,58.7,49.4,39.5,34.8,30.4,25.3,74,50,30,30.07,29.98,10,1,11,0.00
2013-5-15,66.5,51.9,35.8,51.2,38.5,28.5,90,65,27,30.07,29.68,14,1,14,0.01
2013-5-16,80.3,66.1,48.5,50.2,40.0,29.3,95,48,18,29.82,29.63,15,2,21,0.00
2013-5-17,69.0,59.1,49.6,42.9,39.6,33.4,77,50,30,30.22,29.82,12,1,13,0.01
2013-5-18,74.0,58.3,44.6,48.3,42.3,33.6,88,60,25,30.32,30.22,8,0,9,0.00
2013-5-19,71.7,56.8,48.3,54.1,50.3,46.7,95,81,45,30.36,30.23,10,0,12,0.00
2013-5-20,81.5,67.3,55.3,64.2,59.5,53.9,97,78,54,30.22,29.91,10,1,10,0.01
2013-5-21,76.5,60.5,50.5,65.5,56.5,48.2,96,87,67,30.04,29.88,16,1,16,0.00
2013-5-22,66.2,55.4,49.8,59.9,52.8,48.3,96,91,80,30.09,29.88,8,0,8,0.69
2013-5-23,76.0,63.1,52.9,69.4,60.2,51.7,97,90,77,29.94,29.80,12,1,15,0.36
2013-5-24,71.8,62.5,48.3,66.0,59.4,46.9,97,90,73,29.84,29.65,9,1,11,0.38
2013-5-25,48.3,48.0,47.6,47.2,46.9,46.5,97,96,95,29.84,29.77,6,1,6,0.22
2013-5-26,60.0,56.6,53.0,44.3,42.8,41.3,80,70,60,30.02,29.88,1,1,2,0.60
2013-5-27,67.0,63.6,60.0,41.3,39.8,38.4,60,50,40,30.17,30.02,1,1,2,0.29
2013-5-28,73.7,67.6,57.1,51.3,41.6,36.7,81,42,29,30.24,30.16,8,1,11,0.02
2013-5-29,68.9,62.0,56.8,63.9,58.9,49.9,97,90,77,30.19,29.97,6,0,6,0.00
2013-5-30,88.5,74.7,60.6,67.6,63.7,59.7,98,73,42,30.08,30.00,10,1,11,0.04
2013-5-31,94.1,80.5,64.4,68.8,64.4,59.6,94,62,34,30.09,29.92,8,1,9,0.01
2013-6-1,94.4,81.4,67.8,68.8,64.5,57.2,84,60,30,29.97,29.84,9,1,11,0.01
2013-6-2,91.1,78.7,69.6,70.1,66.6,60.6,88,69,39,29.87,29.70,13,1,16,0.00
2013-6-3,78.3,69.4,61.0,68.2,61.3,43.7,95,78,44,29.85,29.74,9,1,11,0.00
2013-6-4,71.2,61.9,52.0,46.3,43.1,39.5,66,51,37,30.10,29.83,12,2,15,0.00
2013-6-5,75.8,62.7,49.6,51.5,46.6,42.4,88,59,33,30.20,30.09,7,0,8,0.00
2013-6-6,75.0,63.8,53.5,54.4,50.6,47.9,84,63,39,30.19,30.10,8,0,8,0.00
2013-6-7,58.9,54.9,52.8,55.3,52.9,51.1,96,93,83,30.12,29.84,7,0,9,0.00
2013-6-8,77.9,63.2,52.3,64.4,57.0,51.2,97,82,59,30.00,29.65,11,1,14,0.01
2013-6-9,78.8,67.6,55.5,58.2,55.4,51.2,96,68,39,30.16,30.00,9,1,11,0.00
2013-6-10,69.4,62.3,55.6,58.5,56.4,53.6,95,82,64,30.21,30.03,7,0,7,0.00
2013-6-11,62.0,57.3,54.8,57.6,55.5,53.7,96,94,84,30.03,29.59,10,0,11,0.16
2013-6-12,70.3,62.2,55.6,56.9,54.6,52.4,97,78,57,29.82,29.57,20,2,20,0.06
2013-6-13,67.9,57.9,51.8,57.3,53.4,49.8,95,86,61,29.82,29.70,5,0,6,0.04
2013-6-14,75.7,61.4,52.1,57.0,53.3,50.4,96,77,44,29.77,29.67,6,0,7,0.01
2013-6-15,78.8,68.0,56.5,54.1,47.2,38.2,77,51,24,29.93,29.77,10,1,13,0.02
2013-6-16,77.4,66.7,54.6,60.9,53.6,48.3,82,64,39,29.94,29.70,8,0,8,0.00
2013-6-17,84.2,68.4,58.5,66.9,60.2,56.0,96,78,41,29.90,29.77,9,1,12,0.00
2013-6-18,71.4,62.4,57.6,62.7,59.2,56.6,98,90,71,29.95,29.89,3,0,5,0.00
2013-6-19,75.8,64.2,55.4,56.9,52.0,43.0,97,69,33,30.15,29.92,6,0,8,0.01
2013-6-20,79.3,66.5,51.1,56.5,50.8,46.0,93,62,33,30.26,30.15,10,0,11,0.01
2013-6-21,85.7,72.0,57.6,62.5,56.0,48.7,87,61,29,30.25,30.18,9,1,9,0.00
2013-6-22,85.1,73.6,62.0,66.5,61.2,57.5,88,67,43,30.22,30.10,8,0,10,0.00
2013-6-23,90.5,77.7,64.9,73.1,65.6,57.7,83,67,52,30.15,29.97,9,1,12,0.00
2013-6-24,93.7,80.7,70.5,71.6,68.6,65.3,91,69,42,30.01,29.85,11,1,13,0.00
2013-6-25,91.0,79.6,70.7,71.8,67.9,64.9,91,69,45,29.92,29.70,10,1,15,0.00
2013-6-26,82.8,73.8,64.8,73.4,69.1,63.1,95,86,63,29.86,29.72,6,0,7,0.00
2013-6-27,72.2,64.8,60.3,67.3,63.0,59.2,97,94,84,29.88,29.76,6,0,8,0.00
2013-6-28,82.2,69.4,58.0,73.3,66.1,57.0,98,90,72,29.77,29.48,11,1,12,0.00
2013-6-29,84.5,75.8,70.7,71.0,68.7,65.4,94,80,56,29.71,29.51,11,1,13,0.00
2013-6-30,87.0,76.8,67.7,73.4,69.5,66.2,96,80,56,29.93,29.71,9,1,10,0.00
2013-7-1,81.2,74.3,71.6,74.0,71.4,69.5,97,91,78,30.07,29.93,7,0,8,0.00
2013-7-2,82.8,70.9,60.5,75.3,68.0,59.0,97,91,72,30.22,30.06,8,0,10,0.02
2013-7-3,89.1,74.4,60.4,74.4,68.0,59.0,96,82,58,30.21,30.12,9,1,11,0.01
2013-7-4,92.5,82.6,72.0,76.0,72.9,70.4,96,74,54,30.20,30.07,8,1,9,0.01
2013-7-5,93.8,84.8,75.1,77.0,73.6,71.7,90,70,51,30.15,30.02,7,1,10,0.00
2013-7-6,90.7,83.2,75.8,74.1,69.8,61.8,90,66,44,30.07,29.97,11,1,13,0.00
2013-7-7,91.8,79.8,68.7,76.1,69.0,61.6,87,70,52,30.01,29.89,6,0,7,0.00
2013-7-8,83.7,75.7,65.0,74.5,70.4,63.1,95,84,68,30.07,29.90,7,0,10,0.00
2013-7-9,72.8,68.3,64.7,67.8,65.3,63.0,96,90,83,30.11,30.05,4,0,5,0.00
2013-7-10,85.3,73.1,65.7,76.0,69.9,63.5,97,90,71,30.08,29.79,7,0,9,0.00
2013-7-11,83.1,75.9,72.1,74.7,72.2,69.3,97,89,73,29.93,29.76,4,0,5,0.00
2013-7-12,78.7,71.8,66.9,69.7,60.3,55.7,94,69,48,30.21,29.93,9,1,14,0.00
2013-7-13,81.2,71.6,65.6,71.2,65.0,57.9,94,80,70,30.31,30.20,6,0,7,0.00
2013-7-14,90.0,79.0,69.4,74.9,71.1,67.9,97,79,52,30.30,30.20,5,0,7,0.00
2013-7-15,91.8,81.2,71.6,73.9,71.3,67.6,95,74,50,30.20,30.08,6,0,8,0.00
2013-7-16,93.8,82.1,71.1,72.6,68.6,65.2,85,66,41,30.16,30.10,6,0,7,0.01
2013-7-17,94.8,82.9,70.8,75.6,70.5,65.5,93,69,44,30.17,29.97,7,0,9,0.00
2013-7-18,95.5,82.6,75.2,75.1,71.4,65.5,84,70,42,30.00,29.93,7,1,9,0.00
2013-7-19,96.5,85.2,73.1,77.9,73.2,69.7,91,70,45,29.93,29.69,12,1,14,0.00
2013-7-20,92.2,84.2,75.7,76.9,71.5,62.5,86,67,50,29.80,29.64,10,1,11,0.00
2013-7-21,83.1,74.8,67.9,67.2,64.1,59.8,91,70,51,29.99,29.80,7,0,8,0.00
2013-7-22,84.1,73.3,67.6,70.6,67.5,65.3,96,83,55,30.01,29.89,7,0,9,0.00
2013-7-23,78.9,71.5,68.0,74.6,69.9,66.1,98,95,86,29.89,29.54,7,0,9,0.00
2013-7-24,85.0,75.3,63.7,72.4,66.7,50.9,98,77,53,29.97,29.58,9,1,11,0.00
2013-7-25,63.7,60.3,57.7,58.4,53.7,48.1,96,79,63,30.12,29.97,6,0,9,0.00
2013-7-26,71.3,65.1,59.3,69.1,62.5,58.2,97,92,82,30.08,29.94,9,0,12,0.00
2013-7-27,83.7,71.8,59.2,66.7,62.3,57.3,96,74,45,30.05,29.98,8,0,11,0.00
2013-7-28,80.7,70.9,64.7,71.6,66.6,62.9,95,87,71,30.02,29.97,7,1,9,0.00
2013-7-29,84.7,72.8,66.0,72.4,68.2,64.5,96,87,60,30.04,29.95,7,0,8,0.00
2013-7-30,82.2,72.0,61.9,67.5,59.4,53.2,97,68,40,30.09,30.02,9,1,11,0.00
2013-7-31,82.2,71.0,60.7,62.8,59.6,56.2,93,69,44,30.14,30.04,6,0,7,0.00
2013-8-1,82.0,70.0,61.7,66.8,63.2,60.5,96,81,54,30.05,29.87,7,0,9,0.00
2013-8-2,83.0,71.5,63.6,68.2,62.8,56.5,97,77,43,29.88,29.78,9,0,10,0.00
2013-8-3,79.2,69.8,62.3,64.5,62.1,58.9,96,78,54,29.86,29.77,7,1,11,0.00
2013-8-4,80.0,68.0,59.0,61.2,56.7,52.7,87,69,42,29.89,29.76,12,1,13,0.00
2013-8-5,75.7,65.0,54.0,53.9,47.6,37.8,90,57,26,30.05,29.89,13,1,16,0.00
2013-8-6,78.5,65.3,51.5,56.7,51.7,47.1,92,64,36,30.15,30.05,6,0,7,0.00
2013-8-7,80.8,68.0,55.5,60.6,55.9,50.8,95,68,38,30.19,30.10,8,0,12,0.00
2013-8-8,81.0,72.7,65.0,71.5,66.2,56.8,89,80,70,30.13,30.00,12,1,12,0.00
2013-8-9,74.9,72.5,70.9,73.9,70.8,68.7,98,94,89,30.02,29.74,11,0,11,0.00
2013-8-10,82.8,73.8,66.0,70.1,61.6,54.6,98,69,39,30.01,29.78,11,1,12,0.00
2013-8-11,78.8,67.6,54.8,59.0,54.8,52.1,93,66,41,30.08,29.99,7,0,8,0.00
2013-8-12,81.5,70.0,58.1,61.8,57.7,51.8,94,68,41,30.03,29.92,7,1,8,0.00
2013-8-13,75.0,68.6,64.6,68.5,64.3,61.3,95,86,72,29.92,29.67,5,0,6,0.00
2013-8-14,74.5,67.0,61.1,63.7,54.5,50.3,96,66,45,29.96,29.66,15,2,18,0.00
2013-8-15,76.1,64.9,52.7,54.1,51.4,47.2,92,65,40,30.11,29.96,10,1,11,0.02
2013-8-16,79.2,66.5,54.5,58.0,54.1,50.3,91,67,38,30.19,30.11,9,0,10,0.01
2013-8-17,81.5,67.9,57.0,61.5,57.6,53.7,91,72,43,30.28,30.19,5,0,7,0.00
2013-8-18,79.3,68.8,57.7,63.8,60.2,56.3,96,76,52,30.28,30.08,6,0,7,0.00
2013-8-19,81.3,71.0,59.9,63.1,60.4,56.8,94,71,45,30.08,29.94,8,1,8,0.00
2013-8-20,85.7,74.3,63.3,65.1,62.1,59.4,89,68,43,30.09,29.98,7,0,8,0.00
2013-8-21,87.9,75.2,61.4,67.1,63.6,59.4,95,70,44,30.14,30.01,7,0,8,0.00
2013-8-22,88.2,75.3,64.6,72.3,66.8,61.8,92,76,46,30.03,29.81,7,0,12,0.00
2013-8-23,80.8,73.1,64.1,69.1,58.5,48.3,91,62,40,30.13,29.81,7,1,9,0.00
2013-8-24,77.7,66.0,55.1,53.0,48.9,43.1,82,57,30,30.33,30.13,6,0,6,0.00
2013-8-25,82.8,68.2,53.7,56.4,53.1,48.0,93,63,31,30.37,30.18,9,0,9,0.00
2013-8-26,81.3,72.0,63.9,67.5,62.6,55.8,86,73,59,30.18,29.86,9,1,12,0.00
2013-8-27,85.6,75.2,67.9,69.5,66.9,64.3,94,77,52,29.90,29.82,6,0,8,0.00
2013-8-28,86.7,72.8,63.5,69.6,65.5,62.0,96,79,54,29.99,29.84,7,0,8,0.00
2013-8-29,66.7,64.6,61.5,64.5,61.3,57.8,94,89,85,30.08,29.95,7,0,9,0.00
2013-8-30,83.6,70.2,58.8,68.7,63.2,56.5,95,80,56,30.03,29.81,6,0,9,0.00
2013-8-31,81.2,73.7,68.5,74.8,70.5,66.3,97,90,78,29.83,29.77,6,0,8,0.00
2013-9-1,83.6,75.4,70.9,74.2,71.2,68.0,94,87,72,29.88,29.78,8,0,10,0.00
2013-9-2,78.7,74.2,71.9,75.2,71.9,70.5,96,92,84,29.87,29.70,4,0,6,0.00
2013-9-3,81.8,73.8,64.5,71.8,67.5,57.5,97,82,64,29.80,29.69,8,1,11,0.00
2013-9-4,80.2,69.3,58.0,59.8,56.7,54.4,92,67,43,29.91,29.80,10,1,12,0.00
2013-9-5,70.2,63.6,54.3,61.2,51.2,39.6,93,67,35,30.16,29.85,8,0,9,0.00
2013-9-6,69.3,57.6,44.8,46.3,42.6,38.1,88,61,34,30.25,30.09,7,0,8,0.00
2013-9-7,79.3,63.8,48.4,59.4,51.0,45.1,89,66,37,30.09,29.85,7,0,7,0.00
2013-9-8,71.5,64.3,52.6,60.4,51.4,40.4,85,65,38,30.10,29.75,12,1,16,0.00
2013-9-9,69.8,57.9,44.9,50.1,44.7,39.5,88,64,34,30.24,30.10,9,0,10,0.00
2013-9-10,74.5,65.4,53.6,70.6,61.7,49.7,95,88,78,30.16,30.02,10,0,10,0.00
2013-9-11,94.8,81.1,68.3,77.4,71.8,66.0,98,76,48,30.06,29.92,9,1,11,0.00
2013-9-12,87.5,76.6,66.3,75.2,69.4,65.0,96,79,60,29.95,29.66,10,1,12,0.00
2013-9-13,77.8,67.2,59.4,68.9,63.8,53.6,97,89,71,29.76,29.57,10,1,12,0.00
2013-9-14,66.8,60.4,52.2,54.4,52.6,49.8,92,76,61,30.06,29.76,9,1,10,0.00
2013-9-15,71.3,58.8,47.9,52.5,49.3,44.9,97,74,42,30.17,30.05,7,0,8,0.00
2013-9-16,67.2,57.4,47.4,55.8,49.7,37.7,90,76,57,30.27,30.00,12,1,14,0.00
2013-9-17,63.2,48.2,40.1,44.9,39.2,36.0,91,73,42,30.41,30.27,5,0,6,0.00
2013-9-18,72.9,57.2,42.7,48.5,44.3,38.3,95,67,31,30.34,30.14,5,0,8,0.00
2013-9-19,77.8,61.8,46.7,57.1,51.4,44.8,95,72,39,30.14,30.03,5,0,6,0.00
2013-9-20,79.7,63.5,50.2,59.8,54.5,48.9,96,76,43,30.09,29.99,5,0,6,0.00
2013-9-21,74.8,64.1,52.4,65.5,59.0,51.3,97,85,63,30.03,29.72,11,1,12,0.00
2013-9-22,70.4,64.4,53.6,66.9,56.5,43.5,96,77,48,29.84,29.59,12,2,15,0.00
2013-9-23,61.7,52.8,46.1,44.6,41.6,39.2,83,67,51,30.02,29.84,13,2,17,0.00
2013-9-24,65.7,53.2,42.8,45.9,42.0,39.1,87,68,42,30.00,29.83,11,1,11,0.00
2013-9-25,68.1,54.7,44.2,52.8,47.1,42.3,94,77,53,30.00,29.88,7,0,7,0.00
2013-9-26,66.9,58.4,52.6,51.9,48.9,46.4,90,72,52,30.14,30.00,4,0,5,0.00
2013-9-27,65.7,58.5,52.7,55.0,52.1,49.8,95,80,65,30.27,30.14,4,0,5,0.00
2013-9-28,72.8,59.0,48.4,56.9,51.8,47.3,97,79,51,30.34,30.27,7,0,8,0.00
2013-9-29,67.7,55.1,47.2,54.3,49.0,42.7,97,82,42,30.27,30.13,6,0,6,0.00
2013-9-30,68.0,54.7,46.4,53.0,49.0,45.0,97,83,51,30.14,29.97,4,0,5,0.00
2013-10-1,75.5,60.3,46.0,56.7,51.4,44.9,97,76,41,29.98,29.85,6,0,8,0.00
2013-10-2,79.7,66.1,53.0,61.9,57.3,51.6,96,75,50,29.95,29.82,12,1,12,0.00
2013-10-3,75.7,63.2,52.4,57.0,52.3,46.4,95,71,37,30.08,29.95,6,0,7,0.00
2013-10-4,61.2,57.1,52.4,57.8,54.1,49.3,97,90,80,30.10,30.04,3,0,5,0.00
2013-10-5,68.3,60.9,55.8,59.1,56.8,54.7,97,87,69,30.13,30.06,4,0,5,0.00
2013-10-6,59.3,55.3,52.3,55.9,53.8,50.6,97,95,86,30.25,30.12,5,0,6,0.00
2013-10-7,68.5,61.4,55.7,66.7,60.0,54.9,98,95,85,30.15,29.82,11,0,15,0.00
2013-10-8,64.5,57.0,47.7,55.8,44.5,37.5,89,65,39,30.39,29.90,10,1,12,0.00
2013-10-9,62.4,50.6,41.7,47.3,43.1,39.0,94,77,53,30.49,30.38,6,0,8,0.00
2013-10-10,60.7,51.2,42.6,52.1,47.3,41.5,96,87,69,30.38,30.20,4,0,5,0.00
2013-10-11,70.9,57.0,47.7,53.7,46.5,35.0,97,73,28,30.20,30.11,5,0,6,0.00
2013-10-12,57.0,53.1,47.9,54.5,50.9,46.3,96,92,86,30.41,30.17,7,0,8,0.00
2013-10-13,59.6,50.8,42.4,50.9,46.2,41.1,97,85,61,30.47,30.40,6,0,7,0.00
2013-10-14,64.8,50.4,38.7,50.1,43.1,37.9,98,79,44,30.42,30.26,6,0,6,0.00
2013-10-15,63.7,55.9,50.1,54.9,51.0,46.8,96,84,72,30.28,30.19,3,0,5,0.00
2013-10-16,60.7,55.0,50.3,54.6,51.8,49.2,98,90,70,30.20,29.92,4,0,4,0.00
2013-10-17,73.5,60.3,50.7,60.3,54.3,49.8,98,83,51,29.93,29.72,9,0,9,0.00
2013-10-18,65.9,59.9,48.2,60.0,50.7,40.3,97,74,47,29.91,29.60,15,1,15,0.00
2013-10-19,66.9,54.4,40.0,47.5,42.6,37.4,94,67,41,29.98,29.75,6,0,8,0.10
2013-10-20,60.3,52.5,41.6,48.9,40.3,34.0,95,66,38,30.03,29.69,14,1,14,0.00
2013-10-21,66.0,50.6,36.3,43.3,39.5,34.0,93,69,41,30.13,30.00,6,0,7,0.01
2013-10-22,64.3,52.9,43.4,52.7,45.0,37.9,96,76,58,30.00,29.71,8,0,11,0.01
2013-10-23,51.2,45.0,35.9,37.8,35.0,32.6,92,69,50,29.81,29.60,8,0,8,0.00
2013-10-24,52.1,44.9,34.2,36.1,30.7,25.7,90,59,38,29.90,29.65,12,1,13,0.00
2013-10-25,49.1,41.1,32.0,34.5,29.8,26.0,94,66,44,30.16,29.89,9,1,11,0.00
2013-10-26,54.4,41.7,28.9,34.8,29.4,25.2,93,66,33,30.16,29.88,13,1,15,0.00
2013-10-27,53.5,47.3,38.2,39.1,34.3,29.3,89,62,40,30.07,29.81,12,1,15,0.00
2013-10-28,57.4,38.1,32.3,34.1,29.8,24.2,89,74,38,30.37,30.07,9,0,12,0.01
2013-10-29,46.8,36.4,29.0,27.8,23.9,18.6,87,63,34,30.47,30.36,4,0,5,0.01
2013-10-30,48.5,38.0,30.3,40.8,33.3,26.9,95,84,71,30.39,30.21,3,0,3,0.00
2013-10-31,59.9,45.6,31.3,58.2,44.1,30.0,97,95,86,30.26,29.80,10,0,10,0.00
2013-11-1,67.8,63.3,54.7,61.4,57.7,50.9,96,83,63,29.80,29.43,13,2,13,0.01
2013-11-2,65.2,54.3,44.9,51.3,44.9,41.2,94,73,42,29.74,29.59,7,0,10,0.02
2013-11-3,50.7,40.9,35.3,46.4,27.6,15.0,86,61,34,30.37,29.73,8,1,13,0.00
2013-11-4,41.7,33.7,26.9,22.4,17.5,13.8,82,53,32,30.73,30.34,6,0,8,0.00
2013-11-5,48.3,37.2,25.7,34.7,27.4,20.7,85,69,45,30.74,30.52,5,0,7,0.00
2013-11-6,48.4,44.4,38.4,40.8,38.3,32.8,86,79,75,30.53,30.40,5,0,6,0.00
2013-11-7,64.3,53.8,37.8,57.4,49.0,30.1,91,84,68,30.43,29.67,11,1,18,0.00
2013-11-8,46.9,39.0,29.8,32.9,26.9,22.2,80,62,49,30.09,29.81,12,2,14,0.00
2013-11-9,40.4,37.8,30.7,28.1,23.9,22.0,70,57,49,30.22,30.09,8,1,11,0.00
2013-11-10,53.7,44.6,38.7,43.5,35.8,27.7,95,72,54,30.11,29.74,12,1,16,0.00
2013-11-11,51.0,44.6,38.7,32.6,28.1,24.9,67,53,37,30.10,29.85,13,2,14,0.00
2013-11-12,48.1,35.0,26.6,38.3,23.9,15.9,91,64,52,30.19,29.88,12,1,16,0.00
2013-11-13,34.9,28.1,22.3,16.4,14.2,10.5,75,57,39,30.31,30.16,9,1,15,0.00
2013-11-14,38.0,32.8,27.0,23.3,20.0,15.5,63,59,54,30.16,30.11,3,0,4,0.00
2013-11-15,60.3,43.4,28.2,31.4,21.6,13.6,69,46,16,30.20,30.10,8,0,9,0.00
2013-11-16,58.7,44.8,34.8,31.4,29.0,24.7,78,56,28,30.33,30.18,3,0,4,0.00
2013-11-17,49.1,41.3,31.6,45.8,37.4,27.7,97,86,77,30.33,29.85,3,0,3,0.00
2013-11-18,64.1,56.5,46.7,60.6,46.1,30.3,98,71,43,29.85,29.52,14,2,15,0.00
2013-11-19,48.6,38.7,31.0,30.8,21.9,15.0,58,51,40,30.28,29.65,18,3,19,0.00
2013-11-20,40.1,32.0,23.2,16.5,14.7,12.0,73,50,32,30.64,30.28,11,2,15,0.00
2013-11-21,46.1,33.6,19.9,26.8,20.2,15.1,85,60,29,30.66,30.38,6,0,7,0.00
2013-11-22,44.1,41.1,36.5,43.0,38.5,26.5,97,91,66,30.38,29.81,2,0,3,0.00
2013-11-23,46.6,38.8,28.6,45.1,26.5,7.5,98,63,38,29.92,29.77,12,2,16,0.00
2013-11-24,29.6,23.4,19.2,16.0,3.6,-3.7,73,43,28,30.20,29.79,30,4,30,0.00
2013-11-25,31.4,23.9,15.3,14.5,1.3,-9.6,53,38,18,30.38,30.20,13,1,15,0.00
2013-11-26,37.6,33.6,29.6,32.6,22.2,13.9,94,64,47,30.35,30.06,9,0,9,0.00
2013-11-27,62.1,49.0,34.1,60.4,47.3,32.2,98,94,81,30.06,29.22,21,2,21,0.00
2013-11-28,37.6,30.2,23.6,32.6,18.3,12.0,84,61,50,30.42,29.44,16,3,16,0.00
2013-11-29,31.1,24.7,18.6,15.8,9.8,3.7,84,54,34,30.75,30.42,10,1,10,0.00
2013-11-30,31.7,23.9,14.6,21.3,13.8,7.8,77,65,46,30.82,30.44,5,0,6,0.00
2013-12-1,36.1,33.2,29.5,35.3,30.0,21.3,97,88,71,30.44,30.03,5,0,5,0.00
2013-12-2,37.9,36.4,35.0,36.8,35.4,34.2,97,96,94,30.03,29.93,5,0,5,0.00
2013-12-3,47.4,38.3,32.0,37.3,33.4,28.6,97,83,56,29.96,29.86,6,1,6,0.00
2013-12-4,41.6,33.8,27.2,29.7,27.0,25.2,96,77,55,30.21,29.96,8,0,9,0.00
2013-12-5,41.7,36.7,28.2,40.9,34.1,25.8,97,90,81,30.23,29.92,3,0,4,0.00
2013-12-6,53.4,45.5,32.7,52.8,41.5,29.7,98,87,55,30.17,29.86,7,1,10,0.00
2013-12-7,39.2,32.5,24.8,32.0,26.3,17.7,96,79,52,30.45,30.09,12,1,13,0.00
2013-12-8,29.2,26.0,19.8,20.2,17.3,14.9,85,70,56,30.61,30.45,5,0,5,0.00
2013-12-9,35.7,30.6,24.0,34.7,28.2,15.7,97,91,62,30.51,29.89,3,0,4,0.00
2013-12-10,34.6,30.5,23.8,30.9,26.5,12.7,97,85,57,30.00,29.78,11,1,13,0.00
2013-12-11,31.1,25.1,21.1,19.5,16.5,14.2,82,70,51,30.21,30.00,14,1,15,0.00
2013-12-12,23.6,19.4,12.6,18.2,7.1,-1.1,90,60,35,30.28,30.07,13,1,14,0.00
2013-12-13,27.7,20.0,12.1,19.9,10.1,-1.8,83,65,53,30.42,30.00,13,1,14,0.00
2013-12-14,16.2,12.0,7.5,13.8,2.5,-5.3,90,66,50,30.64,30.19,6,1,10,0.00
2013-12-15,32.2,23.4,15.8,31.1,20.8,13.4,97,90,77,30.20,29.45,12,0,15,0.00
2013-12-16,26.3,22.3,12.7,20.3,10.9,4.6,90,62,40,30.22,29.74,0,0,0,0.00
2013-12-17,17.8,11.2,1.7,15.9,5.3,-4.3,92,77,57,30.31,29.98,0,0,0,0.00
2013-12-18,32.9,24.4,14.1,20.8,18.0,11.2,90,77,56,30.08,29.90,0,0,0,0.00
2013-12-19,40.9,31.8,25.1,25.9,23.0,19.4,80,70,50,30.12,29.96,9,0,10,0.00
2013-12-20,52.2,39.8,30.6,35.6,30.8,25.1,85,71,51,30.13,29.91,5,0,6,0.00
2013-12-21,57.4,47.2,38.7,47.0,40.4,32.7,92,78,64,29.95,29.85,6,0,6,0.00
2013-12-22,48.1,37.5,31.7,47.2,36.5,30.9,97,96,91,30.04,29.79,10,0,11,0.00
2013-12-23,36.7,32.5,30.3,35.9,31.7,29.6,98,97,95,30.10,29.98,5,0,6,0.00
2013-12-24,36.8,31.3,25.3,35.4,21.1,11.8,95,66,53,30.21,30.06,10,1,12,0.00
2013-12-25,25.3,17.3,11.1,12.8,4.6,-0.2,72,57,45,30.56,30.21,16,1,16,0.00
2013-12-26,28.7,21.6,14.1,25.1,17.3,8.0,95,83,64,30.52,30.10,4,0,4,0.00
2013-12-27,32.7,26.1,17.7,21.6,19.5,15.2,94,77,60,30.28,30.20,7,0,10,0.00
2013-12-28,45.2,32.4,22.1,28.8,24.4,19.0,90,73,50,30.22,29.99,13,0,13,0.00
2013-12-29,40.9,34.9,29.1,36.6,30.6,24.7,96,85,66,30.04,29.44,13,0,13,0.00
2013-12-30,41.6,31.8,15.1,34.4,23.0,4.8,97,71,44,30.19,29.52,13,2,15,0.00
2013-12-31,23.4,16.5,10.3,13.5,4.1,-4.3,79,58,45,30.19,30.04,8,0,10,0.00
2014-1-1,25.6,19.6,14.2,12.3,7.7,5.3,74,60,44,30.40,30.19,13,1,14,0.00
2014-1-2,19.2,9.2,-0.9,13.8,5.4,-4.5,88,84,71,30.38,29.90,10,1,13,0.00